Time;durP1;ratioP1;P1;durP2;ratioP2;P2;SDS_P1;SDS_P2;PMS_P1;PMS_P2;Temp;Humidity;BMP_temperature;BMP_pressure;BME280_temperature;BME280_humidity;BME280_pressure;Samples;Min_cycle;Max_cycle;Signal;HPM_P1;HPM_P2
2022/04/02 00:01:23;;;;;;;4.30;3.13;;;3.70;99.90;;;;;;4974527;28;20189;-63
2022/04/02 00:03:48;;;;;;;6.77;2.83;;;3.50;99.90;;;;;;4973241;28;20198;-63
2022/04/02 00:06:14;;;;;;;5.97;3.70;;;3.60;99.90;;;;;;4982716;28;20258;-63
2022/04/02 00:08:40;;;;;;;4.07;3.30;;;3.60;99.90;;;;;;4980307;28;20284;-63
2022/04/02 00:11:07;;;;;;;5.17;3.53;;;3.50;99.90;;;;;;4956923;28;20199;-63
2022/04/02 00:13:34;;;;;;;6.67;3.73;;;3.50;99.90;;;;;;4964138;28;20564;-65
2022/04/02 00:16:00;;;;;;;3.63;3.00;;;3.50;99.90;;;;;;4973503;28;20193;-65
2022/04/02 00:18:27;;;;;;;4.37;3.80;;;3.50;99.90;;;;;;4972879;28;20219;-63
2022/04/02 00:20:52;;;;;;;2.47;2.27;;;3.40;99.90;;;;;;4974397;28;20193;-62
2022/04/02 00:23:39;;;;;;;4.87;2.67;;;3.40;99.90;;;;;;4957002;28;20561;-63
2022/04/02 00:26:08;;;;;;;3.37;3.07;;;3.50;99.90;;;;;;4973497;28;20188;-62
2022/04/02 00:28:36;;;;;;;6.30;3.37;;;3.50;99.90;;;;;;4972966;28;20196;-63
2022/04/02 00:31:03;;;;;;;3.90;3.33;;;3.50;99.90;;;;;;4974130;28;20188;-63
2022/04/02 00:33:29;;;;;;;3.57;3.07;;;3.60;99.90;;;;;;4973998;28;20354;-63
2022/04/02 00:35:54;;;;;;;4.53;3.00;;;3.60;99.90;;;;;;4972608;28;20666;-63
2022/04/02 00:38:20;;;;;;;4.10;3.70;;;3.40;99.90;;;;;;4963826;28;20195;-63
2022/04/02 00:40:46;;;;;;;3.30;3.00;;;3.40;99.90;;;;;;4984586;28;20223;-62
2022/04/02 00:43:27;;;;;;;5.60;3.33;;;3.40;99.90;;;;;;4973195;28;20223;-62
2022/04/02 00:45:53;;;;;;;5.80;3.00;;;3.30;99.90;;;;;;4977915;28;20200;-63
2022/04/02 00:48:20;;;;;;;4.07;3.20;;;3.40;99.90;;;;;;4972270;28;20224;-63
2022/04/02 00:50:47;;;;;;;6.93;3.50;;;3.50;99.90;;;;;;4980623;28;20183;-63
2022/04/02 00:53:14;;;;;;;4.57;2.53;;;3.50;99.90;;;;;;4985406;28;20266;-63
2022/04/02 00:55:42;;;;;;;5.33;3.47;;;3.40;99.90;;;;;;4973050;28;20196;-63
2022/04/02 00:58:10;;;;;;;4.00;3.10;;;3.40;99.90;;;;;;4975799;28;20235;-63
2022/04/02 01:00:37;;;;;;;4.10;3.40;;;3.40;99.90;;;;;;4974125;28;20188;-62
2022/04/02 01:03:03;;;;;;;7.17;4.40;;;3.40;99.90;;;;;;4973428;28;20192;-63
2022/04/02 01:05:29;;;;;;;3.57;2.90;;;3.30;99.90;;;;;;4971773;28;20561;-63
2022/04/02 01:07:55;;;;;;;3.60;3.30;;;3.40;99.90;;;;;;4971740;28;20197;-63
2022/04/02 01:10:23;;;;;;;5.60;2.90;;;3.30;99.90;;;;;;4972561;28;20224;-63
2022/04/02 01:12:49;;;;;;;3.27;2.93;;;3.30;99.90;;;;;;4984480;28;20223;-63
2022/04/02 01:15:14;;;;;;;3.83;3.53;;;3.20;99.90;;;;;;4976545;28;20197;-63
2022/04/02 01:17:40;;;;;;;3.33;3.03;;;3.20;99.90;;;;;;4971784;28;20251;-62
2022/04/02 01:20:10;;;;;;;4.13;2.97;;;3.20;99.90;;;;;;4980221;28;20275;-63
2022/04/02 01:22:36;;;;;;;5.43;3.83;;;3.30;99.90;;;;;;4985518;28;20228;-63
2022/04/02 01:25:05;;;;;;;9.00;3.20;;;3.40;99.90;;;;;;4978091;28;20192;-63
2022/04/02 01:27:31;;;;;;;7.90;3.67;;;3.30;99.90;;;;;;4976955;28;20185;-63
2022/04/02 01:29:57;;;;;;;4.40;3.43;;;3.10;99.90;;;;;;4990815;28;20193;-63
2022/04/02 01:32:22;;;;;;;5.00;3.50;;;3.10;99.90;;;;;;4976440;28;20209;-63
2022/04/02 01:34:48;;;;;;;3.87;3.50;;;3.20;99.90;;;;;;4959701;28;20200;-66
2022/04/02 01:37:15;;;;;;;4.67;3.00;;;3.20;99.90;;;;;;4975955;28;20204;-63
2022/04/02 01:39:42;;;;;;;8.40;3.73;;;3.20;99.90;;;;;;4977508;28;20193;-63
2022/04/02 01:42:08;;;;;;;4.60;3.10;;;3.10;99.90;;;;;;4975942;28;20226;-64
2022/04/02 01:44:34;;;;;;;3.67;3.30;;;2.90;99.90;;;;;;4976020;28;20200;-63
2022/04/02 01:47:03;;;;;;;4.50;3.10;;;3.00;99.90;;;;;;4977075;28;20259;-63
2022/04/02 01:49:29;;;;;;;5.60;3.23;;;3.10;99.90;;;;;;4975836;28;20256;-63
2022/04/02 01:51:54;;;;;;;5.77;3.80;;;3.00;99.90;;;;;;4979419;28;20654;-63
2022/04/02 01:54:20;;;;;;;5.77;4.73;;;2.80;99.90;;;;;;4989196;28;20193;-64
2022/04/02 01:56:48;;;;;;;4.13;3.60;;;2.80;99.90;;;;;;4975744;28;20262;-64
2022/04/02 01:59:13;;;;;;;4.13;3.43;;;2.80;99.90;;;;;;4990687;28;20193;-63
2022/04/02 02:01:40;;;;;;;4.03;3.57;;;2.60;99.90;;;;;;4976839;28;20712;-63
2022/04/02 02:04:06;;;;;;;4.37;3.97;;;2.50;99.90;;;;;;4975934;28;20279;-62
2022/04/02 02:06:33;;;;;;;3.17;2.77;;;2.60;99.90;;;;;;4986553;28;20724;-63
2022/04/02 02:08:59;;;;;;;3.60;3.30;;;2.60;99.90;;;;;;4975650;28;20561;-63
2022/04/02 02:11:25;;;;;;;6.93;4.17;;;2.60;99.90;;;;;;4976663;28;20193;-63
2022/04/02 02:13:51;;;;;;;3.63;3.33;;;2.60;99.90;;;;;;4977189;28;20226;-62
2022/04/02 02:16:18;;;;;;;7.07;4.27;;;2.60;99.90;;;;;;4959533;28;20662;-62
2022/04/02 02:18:44;;;;;;;10.03;3.60;;;2.50;99.90;;;;;;4977009;28;20196;-62
2022/04/02 02:21:10;;;;;;;3.77;3.47;;;2.60;99.90;;;;;;4976809;28;20192;-62
2022/04/02 02:23:35;;;;;;;3.73;3.23;;;2.60;99.90;;;;;;4975483;28;20204;-63
2022/04/02 02:26:01;;;;;;;3.93;3.40;;;2.60;99.90;;;;;;4976292;28;20561;-62
2022/04/02 02:28:27;;;;;;;5.50;3.67;;;2.60;99.90;;;;;;4976805;28;20727;-62
2022/04/02 02:30:54;;;;;;;4.67;3.47;;;2.60;99.90;;;;;;4975275;28;20185;-62
2022/04/02 02:36:04;;;;;;;3.30;3.07;;;2.60;99.90;;;;;;4976763;28;20225;-63
2022/04/02 02:38:30;;;;;;;2.67;2.47;;;2.60;99.90;;;;;;4988983;28;20191;-63
2022/04/02 02:40:55;;;;;;;5.87;4.53;;;2.40;99.90;;;;;;4977259;28;20202;-63
2022/04/02 02:43:21;;;;;;;4.87;3.13;;;2.30;99.90;;;;;;4976400;28;20199;-63
2022/04/02 02:45:47;;;;;;;4.10;3.20;;;2.30;99.90;;;;;;4958768;28;20181;-65
2022/04/02 02:48:15;;;;;;;5.27;3.23;;;2.20;99.90;;;;;;4975146;28;20633;-62
2022/04/02 02:50:44;;;;;;;10.13;3.70;;;2.30;99.90;;;;;;4975999;28;20219;-64
2022/04/02 02:53:11;;;;;;;4.37;3.30;;;2.30;99.90;;;;;;4974836;28;20205;-63
2022/04/02 02:55:37;;;;;;;7.77;3.97;;;2.20;99.90;;;;;;4973612;28;20194;-63
2022/04/02 02:58:02;;;;;;;5.63;3.10;;;2.20;99.90;;;;;;4975843;28;20272;-64
2022/04/02 03:00:28;;;;;;;4.87;4.03;;;2.20;99.90;;;;;;4976283;28;20216;-64
2022/04/02 03:02:54;;;;;;;5.93;4.07;;;2.30;99.90;;;;;;4975214;28;20196;-63
2022/04/02 03:05:19;;;;;;;3.23;3.00;;;2.30;99.90;;;;;;4974483;28;20223;-63
2022/04/02 03:07:50;;;;;;;3.57;2.40;;;2.30;99.90;;;;;;4974907;28;20691;-62
2022/04/02 03:10:19;;;;;;;3.63;3.17;;;2.30;99.90;;;;;;4985164;28;20192;-63
2022/04/02 03:12:46;;;;;;;4.53;3.30;;;2.30;99.90;;;;;;4992676;28;20624;-63
2022/04/02 03:15:13;;;;;;;7.00;3.73;;;2.30;99.90;;;;;;4986573;28;20192;-62
2022/04/02 03:17:39;;;;;;;3.90;3.00;;;2.30;99.90;;;;;;4974360;28;20206;-62
2022/04/02 03:20:06;;;;;;;5.53;4.73;;;2.30;99.90;;;;;;4975606;28;20200;-62
2022/04/02 03:22:35;;;;;;;2.70;2.50;;;2.20;99.90;;;;;;4975001;28;20273;-63
2022/04/02 03:25:04;;;;;;;5.97;2.73;;;2.30;99.90;;;;;;4993443;28;20200;-62
2022/04/02 03:27:29;;;;;;;5.63;3.07;;;2.20;99.90;;;;;;4985796;28;20709;-63
2022/04/02 03:29:55;;;;;;;7.07;2.93;;;2.20;99.90;;;;;;4974031;28;20286;-63
2022/04/02 03:32:21;;;;;;;4.73;3.13;;;2.10;99.90;;;;;;4983346;28;20598;-63
2022/04/02 03:34:47;;;;;;;4.43;3.20;;;2.30;99.90;;;;;;4977698;28;20196;-62
2022/04/02 03:37:13;;;;;;;6.80;3.47;;;2.30;99.90;;;;;;4988950;28;20608;-63
2022/04/02 03:39:40;;;;;;;4.13;2.53;;;2.30;99.90;;;;;;4974046;28;20200;-62
2022/04/02 03:42:06;;;;;;;9.43;3.70;;;2.30;99.90;;;;;;4975298;28;20199;-64
2022/04/02 03:44:31;;;;;;;8.53;3.20;;;2.30;99.90;;;;;;4973408;28;20188;-63
2022/04/02 03:47:09;;;;;;;4.73;3.00;;;2.30;99.90;;;;;;4957022;28;20195;-64
2022/04/02 03:49:39;;;;;;;5.93;3.23;;;2.30;99.90;;;;;;4974907;28;20273;-63
2022/04/02 03:52:07;;;;;;;3.50;3.07;;;2.40;99.90;;;;;;4974590;28;20220;-64
2022/04/02 03:54:35;;;;;;;5.80;3.00;;;2.20;99.90;;;;;;4989615;28;20202;-63
2022/04/02 03:57:12;;;;;;;6.63;3.73;;;2.10;99.90;;;;;;4957951;28;20185;-64
2022/04/02 03:59:40;;;;;;;7.00;4.20;;;2.20;99.90;;;;;;4978983;28;20696;-63
2022/04/02 04:02:06;;;;;;;5.10;3.30;;;2.10;99.90;;;;;;4980112;28;20256;-64
2022/04/02 04:04:32;;;;;;;5.67;3.10;;;2.10;99.90;;;;;;4972817;28;20267;-65
2022/04/02 04:06:58;;;;;;;4.63;3.50;;;2.20;99.90;;;;;;4974860;28;20288;-64
2022/04/02 04:09:24;;;;;;;3.87;3.57;;;2.30;99.90;;;;;;4974130;28;20197;-64
2022/04/02 04:11:50;;;;;;;4.80;3.30;;;2.30;99.90;;;;;;4957466;28;20199;-64
2022/04/02 04:14:16;;;;;;;4.20;3.07;;;2.20;99.90;;;;;;4984560;28;20203;-64
2022/04/02 04:16:43;;;;;;;7.47;4.40;;;2.20;99.90;;;;;;4973390;28;20185;-64
2022/04/02 04:19:09;;;;;;;3.17;2.87;;;2.10;99.90;;;;;;4974559;28;20242;-64
2022/04/02 04:21:34;;;;;;;6.07;3.40;;;2.20;99.90;;;;;;4974606;28;20187;-64
2022/04/02 04:24:04;;;;;;;4.50;3.27;;;2.30;99.90;;;;;;4973208;28;20554;-63
2022/04/02 04:26:30;;;;;;;4.00;2.73;;;2.30;99.90;;;;;;4973064;28;20704;-64
2022/04/02 04:28:56;;;;;;;4.57;3.17;;;2.30;99.90;;;;;;4980175;28;20271;-64
2022/04/02 04:31:23;;;;;;;5.33;3.87;;;2.30;99.90;;;;;;4980782;28;20638;-65
2022/04/02 04:33:49;;;;;;;3.70;3.03;;;2.30;99.90;;;;;;4980523;28;20307;-64
2022/04/02 04:36:16;;;;;;;9.80;3.50;;;2.20;99.90;;;;;;4973049;28;20646;-67
2022/04/02 04:38:42;;;;;;;3.07;2.70;;;2.20;99.90;;;;;;4972899;28;20669;-66
2022/04/02 04:41:08;;;;;;;3.63;3.13;;;2.20;99.90;;;;;;4979737;28;20638;-67
2022/04/02 04:43:34;;;;;;;5.70;3.37;;;2.20;99.90;;;;;;4974139;28;20196;-66
2022/04/02 04:46:02;;;;;;;3.83;3.10;;;2.30;99.90;;;;;;4974057;28;20193;-66
2022/04/02 04:48:27;;;;;;;5.93;4.13;;;2.30;99.90;;;;;;4974042;28;20188;-65
2022/04/02 04:50:53;;;;;;;5.70;3.47;;;2.30;99.90;;;;;;4980952;28;20193;-69
2022/04/02 04:53:19;;;;;;;6.27;4.20;;;2.20;99.90;;;;;;4987138;28;20605;-66
2022/04/02 04:55:44;;;;;;;3.37;3.07;;;2.20;99.90;;;;;;4975817;28;20203;-66
2022/04/02 04:58:10;;;;;;;3.97;3.07;;;2.10;99.90;;;;;;4983870;28;20200;-66
2022/04/02 05:00:36;;;;;;;9.30;4.40;;;2.20;99.90;;;;;;4977926;28;20599;-67
2022/04/02 05:03:02;;;;;;;4.47;3.07;;;2.10;99.90;;;;;;4977045;28;20196;-65
2022/04/02 05:05:31;;;;;;;4.17;3.13;;;2.10;99.90;;;;;;4960181;28;20559;-67
2022/04/02 05:07:58;;;;;;;3.90;3.30;;;2.30;99.90;;;;;;4977138;28;20650;-66
2022/04/02 05:10:25;;;;;;;5.93;4.07;;;2.20;99.90;;;;;;4976488;28;20199;-66
2022/04/02 05:12:50;;;;;;;8.20;6.00;;;2.20;99.90;;;;;;4987826;28;20742;-63
2022/04/02 05:15:16;;;;;;;9.70;4.07;;;2.30;99.90;;;;;;4979507;28;20201;-65
2022/04/02 05:17:42;;;;;;;3.77;3.43;;;2.20;99.90;;;;;;4990435;28;20193;-64
2022/04/02 05:20:11;;;;;;;3.93;2.93;;;2.20;99.90;;;;;;4977796;28;20247;-65
2022/04/02 05:22:37;;;;;;;4.73;2.83;;;2.20;99.90;;;;;;4976709;28;20619;-65
2022/04/02 05:25:04;;;;;;;6.13;3.30;;;2.10;99.90;;;;;;4977603;28;20192;-65
2022/04/02 05:27:30;;;;;;;3.47;3.17;;;2.00;99.90;;;;;;4994494;28;20188;-66
2022/04/02 05:29:56;;;;;;;3.40;2.33;;;1.90;99.90;;;;;;4977506;28;20195;-65
2022/04/02 05:32:22;;;;;;;3.20;2.90;;;2.00;99.90;;;;;;4984841;28;20574;-66
2022/04/02 05:34:48;;;;;;;8.60;3.43;;;2.00;99.90;;;;;;4976180;28;20681;-64
2022/04/02 05:37:16;;;;;;;3.37;3.07;;;2.10;99.90;;;;;;4979619;28;20195;-66
2022/04/02 05:39:42;;;;;;;7.97;2.80;;;2.30;99.90;;;;;;4976436;28;20196;-64
2022/04/02 05:42:08;;;;;;;3.00;2.80;;;2.30;99.90;;;;;;4977266;28;20203;-64
2022/04/02 05:44:34;;;;;;;9.93;3.43;;;2.30;99.90;;;;;;4980267;28;20617;-65
2022/04/02 05:46:59;;;;;;;5.27;3.37;;;2.30;99.90;;;;;;4983404;28;20664;-67
2022/04/02 05:49:25;;;;;;;3.23;2.80;;;2.20;99.90;;;;;;4982230;28;20191;-64
2022/04/02 05:51:51;;;;;;;6.17;3.23;;;2.20;99.90;;;;;;4978365;28;20757;-62
2022/04/02 05:54:16;;;;;;;2.87;2.43;;;2.10;99.90;;;;;;4977289;28;20199;-63
2022/04/02 05:56:42;;;;;;;3.73;2.83;;;2.20;99.90;;;;;;4975631;28;20196;-64
2022/04/02 05:59:08;;;;;;;2.73;2.53;;;2.30;99.90;;;;;;4975621;28;20185;-65
2022/04/02 06:01:37;;;;;;;4.93;3.33;;;2.30;99.90;;;;;;4986409;28;20230;-65
2022/04/02 06:04:03;;;;;;;2.40;2.20;;;2.40;99.90;;;;;;4978319;28;20222;-64
2022/04/02 06:06:30;;;;;;;2.63;2.43;;;2.50;99.90;;;;;;4985784;28;20646;-64
2022/04/02 06:08:59;;;;;;;5.57;2.33;;;2.50;99.90;;;;;;4976266;28;20200;-64
2022/04/02 06:11:25;;;;;;;4.37;3.57;;;2.50;99.90;;;;;;4977015;28;20185;-65
2022/04/02 06:13:50;;;;;;;4.03;2.67;;;2.70;99.90;;;;;;4976335;28;20209;-65
2022/04/02 06:16:16;;;;;;;2.67;2.20;;;2.70;99.90;;;;;;4976109;28;20557;-63
2022/04/02 06:18:43;;;;;;;5.20;3.23;;;2.70;99.90;;;;;;4975504;28;20192;-65
2022/04/02 06:21:09;;;;;;;7.17;3.23;;;2.60;99.90;;;;;;4990592;28;20198;-64
2022/04/02 06:23:34;;;;;;;4.30;3.40;;;2.80;99.90;;;;;;4995332;28;20279;-69
2022/04/02 06:26:00;;;;;;;7.27;2.40;;;2.90;99.90;;;;;;4981737;28;20712;-66
2022/04/02 06:28:26;;;;;;;3.47;2.73;;;2.90;99.90;;;;;;4977237;28;20234;-66
2022/04/02 06:30:52;;;;;;;4.23;2.80;;;3.00;99.90;;;;;;4984267;28;20217;-63
2022/04/02 06:33:17;;;;;;;2.90;2.70;;;3.00;99.90;;;;;;4975363;28;20592;-66
2022/04/02 06:35:43;;;;;;;2.30;2.07;;;2.90;99.90;;;;;;4975246;28;20218;-66
2022/04/02 06:38:08;;;;;;;2.90;2.17;;;3.00;99.90;;;;;;4976451;28;20559;-64
2022/04/02 06:40:34;;;;;;;3.23;2.93;;;3.00;99.90;;;;;;4976252;28;20773;-66
2022/04/02 06:43:03;;;;;;;3.80;2.77;;;2.90;99.90;;;;;;4976073;28;20207;-66
2022/04/02 06:45:28;;;;;;;2.50;2.37;;;3.00;99.90;;;;;;4980334;28;20184;-63
2022/04/02 06:47:54;;;;;;;3.07;2.50;;;3.00;99.90;;;;;;4986289;28;20216;-64
2022/04/02 06:50:19;;;;;;;2.77;2.57;;;3.00;99.90;;;;;;4976531;28;20247;-66
2022/04/02 06:52:46;;;;;;;3.23;2.47;;;3.10;99.90;;;;;;4975988;28;20562;-66
2022/04/02 06:55:15;;;;;;;5.17;2.40;;;3.30;99.90;;;;;;4989406;28;20228;-66
2022/04/02 06:57:49;;;;;;;2.63;2.43;;;3.40;99.90;;;;;;4976117;28;20275;-64
2022/04/02 07:00:15;;;;;;;3.73;3.00;;;3.50;99.90;;;;;;4985975;28;20703;-66
2022/04/02 07:02:41;;;;;;;2.73;2.57;;;3.50;99.90;;;;;;4968551;28;20188;-66
2022/04/02 07:05:08;;;;;;;5.10;3.17;;;3.80;99.90;;;;;;4985431;28;20291;-65
2022/04/02 07:07:33;;;;;;;3.33;2.60;;;3.70;99.90;;;;;;4982866;28;20698;-65
2022/04/02 07:09:59;;;;;;;5.00;3.13;;;3.80;99.90;;;;;;4976055;28;20288;-66
2022/04/02 07:12:25;;;;;;;2.80;2.13;;;3.80;99.90;;;;;;4991495;28;20223;-65
2022/04/02 07:14:50;;;;;;;4.47;3.30;;;3.80;99.90;;;;;;4976736;28;20196;-65
2022/04/02 07:17:16;;;;;;;4.13;2.17;;;3.90;99.90;;;;;;4975119;28;20207;-65
2022/04/02 07:19:42;;;;;;;2.87;2.67;;;3.80;99.90;;;;;;4975455;28;20200;-63
2022/04/02 07:22:09;;;;;;;2.33;2.10;;;3.80;99.90;;;;;;4975448;28;20196;-65
2022/04/02 07:24:39;;;;;;;3.27;2.27;;;3.90;99.90;;;;;;4974137;28;20212;-66
2022/04/02 07:27:05;;;;;;;4.83;2.20;;;4.30;99.90;;;;;;4974456;28;20716;-66
2022/04/02 07:29:34;;;;;;;2.73;2.53;;;4.30;99.90;;;;;;4958567;28;20192;-65
2022/04/02 07:32:00;;;;;;;3.83;2.50;;;4.80;99.90;;;;;;4975217;28;20243;-65
2022/04/02 07:34:26;;;;;;;2.97;2.63;;;5.00;99.90;;;;;;4975647;28;20200;-63
2022/04/02 07:37:05;;;;;;;3.60;2.97;;;4.80;99.90;;;;;;4974288;28;20215;-66
2022/04/02 07:39:55;;;;;;;2.53;2.43;;;4.80;99.90;;;;;;4975640;28;20279;-65
2022/04/02 07:42:34;;;;;;;2.97;2.53;;;5.30;99.90;;;;;;4986419;28;20192;-66
2022/04/02 07:45:13;;;;;;;2.47;2.27;;;5.60;99.90;;;;;;4986125;28;20176;-65
2022/04/02 07:47:45;;;;;;;2.53;1.97;;;5.60;99.90;;;;;;4983034;28;20187;-65
2022/04/02 07:50:15;;;;;;;4.37;2.87;;;5.60;99.90;;;;;;4988829;28;20188;-66
2022/04/02 07:52:49;;;;;;;3.97;2.50;;;5.70;99.90;;;;;;4987512;28;20262;-64
2022/04/02 07:55:18;;;;;;;4.27;2.33;;;5.80;99.90;;;;;;4978714;28;20195;-65
2022/04/02 07:57:49;;;;;;;3.00;2.67;;;5.60;99.90;;;;;;4973372;28;20193;-66
2022/04/02 08:00:19;;;;;;;2.60;2.30;;;6.10;99.90;;;;;;4975529;28;20191;-64
2022/04/02 08:02:46;;;;;;;3.40;2.70;;;6.00;99.90;;;;;;4975220;28;20665;-65
2022/04/02 08:05:17;;;;;;;1.93;1.83;;;6.30;99.90;;;;;;4974720;28;20495;-64
2022/04/02 08:07:54;;;;;;;2.70;2.30;;;6.70;99.90;;;;;;4974923;28;20212;-64
2022/04/02 08:10:23;;;;;;;2.83;2.53;;;6.50;99.90;;;;;;4985416;28;20566;-64
2022/04/02 08:12:49;;;;;;;5.37;2.67;;;6.40;99.90;;;;;;4974956;28;20212;-65
2022/04/02 08:15:18;;;;;;;4.30;2.70;;;6.50;99.90;;;;;;4973594;28;20696;-65
2022/04/02 08:17:54;;;;;;;2.47;1.70;;;6.20;99.90;;;;;;4974550;28;20189;-64
2022/04/02 08:20:23;;;;;;;2.77;2.47;;;6.20;99.90;;;;;;4974469;28;21041;-63
2022/04/02 08:22:49;;;;;;;3.60;2.43;;;6.20;99.90;;;;;;4974733;28;20346;-64
2022/04/02 08:25:15;;;;;;;3.53;2.50;;;6.30;99.90;;;;;;4973323;28;20197;-65
2022/04/02 08:27:57;;;;;;;3.60;2.63;;;6.60;99.90;;;;;;4956980;28;20657;-65
2022/04/02 08:30:47;;;;;;;2.90;2.50;;;7.00;99.90;;;;;;4987897;28;20184;-67
2022/04/02 08:33:25;;;;;;;4.77;2.17;;;7.30;99.90;;;;;;4978627;28;20196;-65
2022/04/02 08:36:34;;;;;;;2.67;2.27;;;7.50;99.90;;;;;;4974369;28;20262;-65
2022/04/02 08:39:19;;;;;;;2.33;2.10;;;7.60;99.90;;;;;;4974459;28;20214;-65
2022/04/02 08:42:27;;;;;;;3.87;2.37;;;7.00;99.90;;;;;;4973844;28;20181;-65
2022/04/02 08:45:13;;;;;;;5.17;2.27;;;7.60;99.90;;;;;;4974425;28;20208;-64
2022/04/02 08:47:57;;;;;;;2.30;2.10;;;8.00;99.90;;;;;;4979342;28;20271;-64
2022/04/02 08:50:31;;;;;;;2.40;2.20;;;7.40;99.90;;;;;;4988283;28;20207;-64
2022/04/02 08:53:17;;;;;;;5.30;2.90;;;6.80;99.90;;;;;;4974185;28;20290;-64
2022/04/02 08:55:47;;;;;;;4.23;2.80;;;6.20;99.90;;;;;;4974414;28;20197;-64
2022/04/02 08:58:41;;;;;;;3.03;2.37;;;5.80;99.90;;;;;;4974270;28;20335;-65
2022/04/02 09:01:09;;;;;;;8.27;3.40;;;5.70;99.90;;;;;;4972635;28;20282;-65
2022/04/02 09:03:53;;;;;;;2.83;2.63;;;5.70;99.90;;;;;;4988247;28;20196;-64
2022/04/02 09:06:58;;;;;;;2.73;2.53;;;5.90;99.90;;;;;;4987103;28;20227;-66
2022/04/02 09:09:52;;;;;;;2.63;2.43;;;6.00;99.90;;;;;;4972551;28;20725;-64
2022/04/02 09:12:53;;;;;;;4.07;3.10;;;5.80;99.90;;;;;;4958478;28;20658;-65
2022/04/02 09:15:33;;;;;;;2.33;2.13;;;5.70;99.90;;;;;;4974057;28;20647;-66
2022/04/02 09:18:25;;;;;;;3.27;2.90;;;5.60;99.90;;;;;;4973185;28;20647;-64
2022/04/02 09:20:57;;;;;;;6.33;3.30;;;5.50;99.90;;;;;;4991289;28;20207;-64
2022/04/02 09:23:43;;;;;;;5.13;2.83;;;5.40;99.90;;;;;;4978296;28;20215;-70
2022/04/02 09:26:46;;;;;;;5.63;3.33;;;5.50;99.90;;;;;;4986608;28;20191;-66
2022/04/02 09:29:16;;;;;;;3.83;3.17;;;5.70;99.90;;;;;;4973932;28;20214;-66
2022/04/02 09:32:20;;;;;;;4.90;3.80;;;5.90;99.90;;;;;;4972640;28;20662;-65
2022/04/02 09:35:07;;;;;;;2.63;2.43;;;5.80;99.90;;;;;;4973985;28;20192;-64
2022/04/02 09:37:32;;;;;;;3.43;2.80;;;5.90;99.90;;;;;;4988718;28;20568;-66
2022/04/02 09:40:10;;;;;;;3.97;3.30;;;5.90;99.90;;;;;;4973566;28;20266;-66
2022/04/02 09:42:43;;;;;;;3.13;2.83;;;6.10;99.90;;;;;;4973226;28;20200;-66
2022/04/02 09:45:20;;;;;;;3.87;3.37;;;6.40;99.90;;;;;;4976622;28;20205;-65
2022/04/02 09:47:58;;;;;;;7.67;3.40;;;6.50;99.90;;;;;;4982059;28;20243;-66
2022/04/02 09:50:25;;;;;;;4.13;3.27;;;6.50;99.90;;;;;;4983992;28;20271;-67
2022/04/02 09:53:19;;;;;;;3.83;3.17;;;6.60;99.90;;;;;;4994091;28;20224;-65
2022/04/02 09:56:15;;;;;;;6.63;3.40;;;6.60;99.90;;;;;;4982417;28;20193;-66
2022/04/02 09:59:02;;;;;;;8.47;2.87;;;6.30;99.90;;;;;;4984826;28;20272;-66
2022/04/02 10:01:46;;;;;;;4.20;2.97;;;6.40;99.90;;;;;;4977426;28;20192;-66
2022/04/02 10:04:40;;;;;;;6.37;3.33;;;6.00;99.90;;;;;;4978309;28;20188;-66
2022/04/02 10:07:13;;;;;;;4.07;3.17;;;5.80;99.90;;;;;;4978699;28;20196;-66
2022/04/02 10:09:41;;;;;;;3.57;3.27;;;5.50;99.90;;;;;;4977987;28;20513;-64
2022/04/02 10:12:09;;;;;;;3.10;2.87;;;5.40;99.90;;;;;;4975702;28;20653;-65
2022/04/02 10:14:38;;;;;;;4.60;3.60;;;5.30;99.90;;;;;;4976798;28;20188;-66
2022/04/02 10:17:06;;;;;;;4.03;3.53;;;5.50;99.90;;;;;;4980166;28;20177;-64
2022/04/02 10:19:37;;;;;;;3.77;3.47;;;5.50;99.90;;;;;;4995273;28;20207;-66
2022/04/02 10:22:04;;;;;;;4.10;3.57;;;5.60;99.90;;;;;;4976824;28;20181;-64
2022/04/02 10:24:55;;;;;;;4.17;3.77;;;5.90;99.90;;;;;;4976809;28;20184;-66
2022/04/02 10:27:42;;;;;;;3.67;3.23;;;5.90;99.90;;;;;;4976219;28;20284;-66
2022/04/02 10:30:11;;;;;;;7.63;3.63;;;6.00;99.90;;;;;;4975148;28;20192;-66
2022/04/02 10:32:51;;;;;;;3.47;3.00;;;6.00;99.90;;;;;;4984217;28;20205;-68
2022/04/02 10:35:17;;;;;;;9.70;3.27;;;5.80;99.90;;;;;;4976809;28;20188;-66
2022/04/02 10:37:44;;;;;;;5.07;3.67;;;5.90;99.90;;;;;;4976748;28;20204;-67
2022/04/02 10:40:12;;;;;;;4.30;3.47;;;6.20;99.90;;;;;;4975076;28;20181;-65
2022/04/02 10:42:41;;;;;;;4.03;3.27;;;6.40;99.90;;;;;;4976114;28;20568;-66
2022/04/02 10:45:10;;;;;;;3.40;3.10;;;6.70;99.90;;;;;;4976509;28;20549;-64
2022/04/02 10:47:49;;;;;;;4.47;3.67;;;6.30;99.90;;;;;;4976243;28;20537;-66
2022/04/02 10:50:22;;;;;;;6.10;3.60;;;5.90;99.90;;;;;;4976671;28;20697;-66
2022/04/02 10:52:49;;;;;;;3.63;3.33;;;5.80;99.90;;;;;;4979044;28;20204;-66
2022/04/02 10:55:17;;;;;;;4.87;3.60;;;6.00;99.90;;;;;;4989705;28;20638;-65
2022/04/02 10:57:43;;;;;;;4.33;4.03;;;6.20;99.90;;;;;;4975819;28;20189;-65
2022/04/02 11:00:10;;;;;;;4.07;3.73;;;6.30;99.90;;;;;;4976327;28;20203;-66
2022/04/02 11:02:46;;;;;;;4.47;4.07;;;6.20;99.90;;;;;;4977229;28;20192;-66
2022/04/02 11:05:17;;;;;;;3.87;3.30;;;5.90;99.90;;;;;;4985332;28;20199;-67
2022/04/02 11:07:44;;;;;;;3.07;2.63;;;6.00;99.90;;;;;;4974968;28;20544;-66
2022/04/02 11:10:15;;;;;;;3.63;3.33;;;6.20;99.90;;;;;;4976014;28;20638;-65
2022/04/02 11:12:44;;;;;;;4.57;3.57;;;6.40;99.90;;;;;;4979383;28;20250;-64
2022/04/02 11:15:20;;;;;;;3.87;3.57;;;6.40;99.90;;;;;;4986791;28;20661;-64
2022/04/02 11:17:57;;;;;;;4.43;3.37;;;6.50;99.90;;;;;;4975965;28;20279;-66
2022/04/02 11:20:25;;;;;;;3.87;3.30;;;6.30;99.90;;;;;;4975552;28;20184;-65
2022/04/02 11:22:55;;;;;;;4.77;3.73;;;6.10;99.90;;;;;;4975497;28;20201;-70
2022/04/02 11:25:31;;;;;;;4.53;3.60;;;6.00;99.90;;;;;;4975653;28;20654;-66
2022/04/02 11:28:14;;;;;;;4.13;3.30;;;5.90;99.90;;;;;;4994572;28;20180;-65
2022/04/02 11:30:45;;;;;;;8.43;4.07;;;5.90;99.90;;;;;;4986332;28;20181;-66
2022/04/02 11:33:21;;;;;;;4.57;3.97;;;5.90;99.90;;;;;;4974021;28;20212;-66
2022/04/02 11:35:58;;;;;;;7.20;4.77;;;6.00;99.90;;;;;;4975517;28;20204;-66
2022/04/02 11:38:42;;;;;;;4.07;3.43;;;6.10;99.90;;;;;;4974255;28;20252;-66
2022/04/02 11:41:13;;;;;;;4.97;4.33;;;6.30;99.90;;;;;;4983454;28;20184;-65
2022/04/02 11:43:42;;;;;;;6.57;4.20;;;6.50;99.90;;;;;;4993798;28;20192;-66
2022/04/02 11:46:18;;;;;;;5.00;4.30;;;6.80;99.90;;;;;;4984529;28;20234;-66
2022/04/02 11:48:59;;;;;;;8.37;4.40;;;7.10;99.90;;;;;;4980312;28;20235;-66
2022/04/02 11:51:29;;;;;;;5.47;4.00;;;7.60;99.90;;;;;;4973928;28;20204;-66
2022/04/02 11:54:04;;;;;;;5.80;2.97;;;7.90;99.90;;;;;;4987026;28;20220;-66
2022/04/02 11:56:35;;;;;;;4.87;3.83;;;7.50;99.90;;;;;;4974897;28;20184;-66
2022/04/02 11:59:35;;;;;;;3.83;3.53;;;7.10;99.90;;;;;;5081115;27;1283731;-67
2022/04/02 12:02:02;;;;;;;4.13;3.73;;;6.90;99.90;;;;;;5110011;28;20188;-65
2022/04/02 12:04:28;;;;;;;4.17;3.83;;;6.50;99.90;;;;;;5109635;28;20203;-66
2022/04/02 12:07:06;;;;;;;11.00;4.47;;;6.60;99.90;;;;;;5091817;28;20188;-63
2022/04/02 12:09:33;;;;;;;6.93;3.20;;;6.70;99.90;;;;;;5109710;28;20240;-65
2022/04/02 12:12:03;;;;;;;5.47;3.73;;;6.60;99.90;;;;;;5091502;28;20214;-65
2022/04/02 12:14:33;;;;;;;4.83;4.03;;;6.70;99.90;;;;;;5108256;28;20640;-65
2022/04/02 12:17:09;;;;;;;4.23;3.57;;;6.80;99.90;;;;;;5098704;28;20230;-66
2022/04/02 12:19:34;;;;;;;6.00;3.77;;;7.10;99.90;;;;;;5091947;28;20207;-66
2022/04/02 12:22:01;;;;;;;5.83;4.17;;;6.90;99.90;;;;;;5108484;28;20672;-65
2022/04/02 12:24:37;;;;;;;5.73;4.40;;;6.30;99.90;;;;;;5090915;28;20184;-67
2022/04/02 12:27:07;;;;;;;6.13;4.90;;;6.10;99.90;;;;;;5108566;28;20184;-66
2022/04/02 12:29:33;;;;;;;3.60;3.27;;;6.10;99.90;;;;;;5109792;28;20282;-66
2022/04/02 12:32:00;;;;;;;3.93;3.53;;;6.20;99.90;;;;;;5109744;28;20200;-65
2022/04/02 12:34:27;;;;;;;3.67;3.33;;;6.40;99.90;;;;;;5109201;28;20176;-66
2022/04/02 12:37:03;;;;;;;5.63;3.53;;;6.40;99.90;;;;;;5109623;28;20704;-66
2022/04/02 12:39:29;;;;;;;4.00;3.60;;;6.70;99.90;;;;;;5071812;28;20224;-66
2022/04/02 12:41:54;;;;;;;3.87;3.23;;;6.80;99.90;;;;;;5099566;28;20646;-66
2022/04/02 12:44:23;;;;;;;4.50;3.80;;;6.80;99.90;;;;;;5074396;28;20194;-66
2022/04/02 12:46:51;;;;;;;3.83;3.37;;;6.80;99.90;;;;;;5108158;28;20176;-65
2022/04/02 12:49:38;;;;;;;4.97;3.67;;;6.70;99.90;;;;;;5091538;28;20192;-64
2022/04/02 12:52:15;;;;;;;4.03;3.50;;;6.60;99.90;;;;;;5091082;28;20313;-67
2022/04/02 12:54:48;;;;;;;5.80;3.80;;;6.90;99.90;;;;;;5106955;28;20632;-66
2022/04/02 12:57:15;;;;;;;5.47;4.43;;;7.20;99.90;;;;;;5100152;28;20195;-66
2022/04/02 12:59:46;;;;;;;3.77;3.47;;;7.40;99.90;;;;;;5074262;28;20278;-64
2022/04/02 13:02:24;;;;;;;4.33;3.93;;;7.10;99.90;;;;;;5107948;28;20267;-64
2022/04/02 13:04:54;;;;;;;3.60;3.27;;;7.00;99.90;;;;;;5090406;28;20267;-64
2022/04/02 13:07:23;;;;;;;4.63;3.07;;;6.70;99.90;;;;;;5109608;28;20218;-65
2022/04/02 13:09:53;;;;;;;4.17;3.70;;;6.70;99.90;;;;;;5083858;28;20196;-64
2022/04/02 13:12:23;;;;;;;6.73;4.17;;;6.70;99.90;;;;;;5093872;28;20179;-65
2022/04/02 13:15:10;;;;;;;3.33;3.13;;;6.70;99.90;;;;;;5083885;28;20189;-67
2022/04/02 13:20:35;;;;;;;9.60;3.70;;;6.60;99.90;;;;;;5095524;28;20215;-64